Time;durP1;ratioP1;P1;durP2;ratioP2;P2;SDS_P1;SDS_P2;PMS_P1;PMS_P2;Temp;Humidity;BMP_temperature;BMP_pressure;BME280_temperature;BME280_humidity;BME280_pressure;Samples;Min_cycle;Max_cycle;Signal;HPM_P1;HPM_P2
2022/08/19 00:01:48;;;;;;;27.02;8.30;;;;;;;24.74;48.85;94996.63;4996686;28;20115;-85
2022/08/19 00:04:15;;;;;;;22.27;8.10;;;;;;;24.60;48.50;94974.75;4996848;28;20051;-84
2022/08/19 00:06:44;;;;;;;27.58;9.77;;;;;;;24.51;48.50;94956.06;4997139;28;20060;-84
2022/08/19 00:09:14;;;;;;;22.25;8.27;;;;;;;24.63;48.62;94995.72;4997365;28;20116;-84
2022/08/19 00:11:40;;;;;;;19.50;7.93;;;;;;;24.62;48.75;94975.19;4998895;28;20034;-84
2022/08/19 00:14:09;;;;;;;18.70;8.15;;;;;;;24.33;49.23;94962.41;4999357;28;20044;-85
2022/08/19 00:16:35;;;;;;;17.58;8.27;;;;;;;24.33;48.81;94951.56;4997007;28;20088;-84
2022/08/19 00:19:01;;;;;;;18.65;7.72;;;;;;;24.01;48.99;94973.50;4996461;28;20037;-84
2022/08/19 00:21:27;;;;;;;22.00;8.10;;;;;;;23.67;48.84;94891.34;4997899;28;20143;-84
2022/08/19 00:23:54;;;;;;;14.43;7.90;;;;;;;24.68;48.24;95019.03;4996513;28;20042;-84
2022/08/19 00:26:20;;;;;;;15.73;7.63;;;;;;;24.48;48.35;94991.25;4996526;28;20042;-84
2022/08/19 00:28:46;;;;;;;19.15;7.85;;;;;;;24.72;48.79;95015.19;4996467;28;20571;-84
2022/08/19 00:31:11;;;;;;;11.48;7.93;;;;;;;24.68;48.38;95008.19;4996171;28;20460;-84
2022/08/19 00:33:37;;;;;;;14.35;7.85;;;;;;;24.12;48.31;94922.19;4995906;28;20045;-84
2022/08/19 00:36:06;;;;;;;16.75;7.95;;;;;;;23.86;48.62;94874.25;4998039;28;20442;-84
2022/08/19 00:38:32;;;;;;;19.05;7.93;;;;;;;24.40;49.17;94982.25;4996298;28;20060;-84
2022/08/19 00:40:58;;;;;;;18.23;8.38;;;;;;;24.68;49.01;95019.03;4996764;28;20044;-84
2022/08/19 00:43:26;;;;;;;17.15;6.88;;;;;;;23.89;48.63;94916.81;4996496;28;20045;-84
2022/08/19 00:45:52;;;;;;;17.98;7.47;;;;;;;24.45;48.87;94970.31;4996824;28;20126;-84
2022/08/19 00:48:20;;;;;;;12.32;7.93;;;;;;;24.67;48.95;95010.09;4999661;28;20030;-84
2022/08/19 00:50:48;;;;;;;22.23;7.53;;;;;;;24.40;49.20;94982.25;5001637;28;20126;-84
2022/08/19 00:53:17;;;;;;;16.80;7.03;;;;;;;23.73;50.72;94957.56;4999757;28;20451;-84
2022/08/19 00:55:47;;;;;;;14.02;7.90;;;;;;;23.64;50.47;94911.03;5001980;28;20598;-84
2022/08/19 00:58:17;;;;;;;11.98;7.65;;;;;;;23.52;50.26;94907.72;5001634;28;20040;-84
2022/08/19 01:00:43;;;;;;;13.00;7.53;;;;;;;23.85;50.12;94946.56;5005160;28;20530;-84
2022/08/19 01:03:11;;;;;;;13.52;6.97;;;;;;;24.26;50.70;95013.78;5021694;28;20037;-84
2022/08/19 01:05:39;;;;;;;17.60;7.88;;;;;;;23.70;50.57;94944.78;5019758;28;20163;-84
2022/08/19 01:08:06;;;;;;;15.30;7.50;;;;;;;23.81;51.13;94975.50;5019955;28;20490;-84
2022/08/19 01:10:39;;;;;;;16.83;8.13;;;;;;;23.46;51.71;94961.34;5019882;28;20122;-83
2022/08/19 01:13:05;;;;;;;18.83;7.15;;;;;;;23.89;51.67;95016.25;5021506;28;20116;-84
2022/08/19 01:15:40;;;;;;;17.25;7.78;;;;;;;23.89;51.86;95019.72;5021149;28;20029;-84
2022/08/19 01:18:09;;;;;;;14.57;8.00;;;;;;;24.03;51.49;95017.25;5020695;28;20033;-84
2022/08/19 01:20:35;;;;;;;17.08;8.07;;;;;;;23.68;51.44;94963.31;5019419;28;20037;-84
2022/08/19 01:23:01;;;;;;;13.88;8.45;;;;;;;22.99;51.28;94856.94;5019383;28;20041;-83
2022/08/19 01:25:34;;;;;;;17.20;7.97;;;;;;;24.05;51.00;95012.25;5021528;28;20044;-84
2022/08/19 01:28:00;;;;;;;13.23;7.95;;;;;;;23.64;50.98;94950.88;5021399;28;20524;-84
2022/08/19 01:30:30;;;;;;;14.80;7.80;;;;;;;23.50;50.80;94905.38;5021395;28;20384;-84
2022/08/19 01:32:57;;;;;;;16.42;7.68;;;;;;;23.80;50.91;94981.31;5019819;28;20118;-84
2022/08/19 01:35:24;;;;;;;11.45;7.57;;;;;;;23.27;51.05;94902.63;5020606;28;20044;-84
2022/08/19 01:37:51;;;;;;;13.30;7.53;;;;;;;24.10;50.62;95003.06;5020805;28;20040;-84
2022/08/19 01:40:20;;;;;;;17.05;7.93;;;;;;;23.10;51.78;94938.28;5020482;28;20037;-84
2022/08/19 01:42:47;;;;;;;13.10;7.55;;;;;;;23.59;52.16;95002.56;5021151;28;20396;-84
2022/08/19 01:45:13;;;;;;;14.88;7.80;;;;;;;23.24;52.43;94965.59;5019530;28;20036;-84
2022/08/19 01:47:39;;;;;;;12.38;7.25;;;;;;;23.52;51.23;94999.75;5021699;28;20111;-84
2022/08/19 01:50:06;;;;;;;12.70;8.00;;;;;;;23.41;51.37;94981.38;5020754;28;20444;-84
2022/08/19 01:52:32;;;;;;;14.25;7.85;;;;;;;22.81;51.92;94903.75;5021207;28;20437;-84
2022/08/19 01:54:58;;;;;;;8.25;7.05;;;;;;;23.59;52.08;95016.13;5020470;28;20029;-84
2022/08/19 01:57:23;;;;;;;13.80;8.20;;;;;;;22.49;51.86;94843.63;5019745;28;20056;-85
2022/08/19 01:59:50;;;;;;;13.60;8.18;;;;;;;22.10;52.69;94846.34;5018618;28;20044;-84
2022/08/19 02:02:15;;;;;;;23.23;8.23;;;;;;;22.92;52.30;94946.06;5019147;28;20123;-84
2022/08/19 02:04:40;;;;;;;16.92;7.68;;;;;;;22.74;51.96;94906.28;5018786;28;20076;-84
2022/08/19 02:07:07;;;;;;;13.60;8.73;;;;;;;23.19;51.71;94954.28;5018680;28;20160;-84
2022/08/19 02:09:34;;;;;;;15.75;8.52;;;;;;;22.84;51.89;94941.66;5018662;28;20033;-84
2022/08/19 02:12:00;;;;;;;16.95;7.68;;;;;;;23.31;51.56;94987.38;5018652;28;20476;-84
2022/08/19 02:14:25;;;;;;;12.32;7.90;;;;;;;23.24;51.47;94971.00;5020608;28;20492;-84
2022/08/19 02:16:51;;;;;;;13.13;7.85;;;;;;;23.44;51.46;94985.28;5018371;28;20115;-84
2022/08/19 02:19:16;;;;;;;14.77;8.00;;;;;;;23.70;51.32;95020.59;5019179;28;20435;-84
2022/08/19 02:21:43;;;;;;;12.88;7.32;;;;;;;22.94;51.31;94910.56;5020298;28;20033;-85
2022/08/19 02:24:09;;;;;;;13.98;8.20;;;;;;;22.89;51.50;94897.31;5019894;28;20560;-84
2022/08/19 02:26:34;;;;;;;17.02;8.10;;;;;;;23.42;51.96;95017.34;5018771;28;20068;-84
2022/08/19 02:29:00;;;;;;;12.48;7.13;;;;;;;23.36;52.05;95000.59;5018266;28;20041;-84
2022/08/19 02:31:27;;;;;;;15.00;7.95;;;;;;;23.46;52.18;95020.88;5018320;28;20814;-84
2022/08/19 02:33:54;;;;;;;13.93;7.72;;;;;;;22.79;52.10;94911.44;5018929;28;20045;-84
2022/08/19 02:36:19;;;;;;;16.65;8.10;;;;;;;23.04;52.00;94962.13;5019008;28;20524;-84
2022/08/19 02:38:46;;;;;;;14.93;8.38;;;;;;;23.51;51.85;95020.63;5018709;28;20040;-84
2022/08/19 02:41:24;;;;;;;16.95;8.20;;;;;;;23.39;51.88;95013.44;5018302;28;20052;-84
2022/08/19 02:43:49;;;;;;;20.63;8.02;;;;;;;22.69;51.76;94899.22;5018408;28;20045;-84
2022/08/19 02:46:20;;;;;;;11.30;7.60;;;;;;;23.25;51.46;95001.56;5020364;28;20368;-84
2022/08/19 02:48:50;;;;;;;16.98;8.30;;;;;;;23.41;52.11;95027.38;5019451;28;20030;-85
2022/08/19 02:51:19;;;;;;;15.93;7.78;;;;;;;22.63;51.34;94897.97;5018013;28;20045;-84
2022/08/19 02:53:44;;;;;;;23.00;8.25;;;;;;;21.86;51.50;94789.84;5018425;28;20034;-85
2022/08/19 02:56:10;;;;;;;12.30;8.25;;;;;;;23.27;51.51;95018.19;5019949;28;20114;-86
2022/08/19 02:58:35;;;;;;;16.05;7.97;;;;;;;23.28;52.34;95036.78;5018551;28;20041;-84
2022/08/19 03:01:01;;;;;;;19.75;8.43;;;;;;;23.18;52.89;95034.66;5019575;28;20757;-85
2022/08/19 03:03:27;;;;;;;17.90;8.43;;;;;;;23.16;52.99;95039.66;5018289;28;20037;-85
2022/08/19 03:06:03;;;;;;;19.65;8.38;;;;;;;22.55;52.86;94932.16;5017998;28;20497;-84
2022/08/19 03:08:29;;;;;;;17.63;8.63;;;;;;;22.25;53.05;94906.84;5018131;28;20044;-84
2022/08/19 03:10:55;;;;;;;15.05;8.18;;;;;;;22.50;53.46;94961.41;5019882;28;20033;-85
2022/08/19 03:13:21;;;;;;;16.10;8.55;;;;;;;21.79;54.02;94887.66;5019682;28;20466;-84
2022/08/19 03:15:47;;;;;;;17.98;8.05;;;;;;;22.60;54.27;95012.97;5018956;28;20548;-84
2022/08/19 03:18:14;;;;;;;13.45;8.32;;;;;;;21.94;54.34;94919.25;5018866;28;20044;-84
2022/08/19 03:20:44;;;;;;;15.20;8.35;;;;;;;22.51;55.01;95022.38;5017350;28;20033;-84
2022/08/19 03:23:10;;;;;;;13.65;8.23;;;;;;;22.46;54.93;95003.75;5018060;28;20094;-84
2022/08/19 03:25:38;;;;;;;14.82;8.18;;;;;;;22.54;54.57;95006.25;5018117;28;20071;-84
2022/08/19 03:28:04;;;;;;;14.32;8.13;;;;;;;22.37;54.26;94965.34;5018050;28;20052;-84
2022/08/19 03:30:29;;;;;;;17.17;7.80;;;;;;;22.55;54.24;94982.72;5019405;28;20049;-84
2022/08/19 03:32:55;;;;;;;11.35;7.45;;;;;;;21.67;54.74;94889.66;5018846;28;20189;-85
2022/08/19 03:35:20;;;;;;;15.60;7.72;;;;;;;22.26;53.98;94957.81;5017696;28;20037;-84
2022/08/19 03:37:46;;;;;;;20.33;9.57;;;;;;;22.51;53.97;95000.78;5017209;28;20103;-84
2022/08/19 03:40:11;;;;;;;13.57;8.23;;;;;;;22.43;53.64;94963.94;5019345;28;20413;-85
2022/08/19 03:42:37;;;;;;;18.52;8.07;;;;;;;22.85;53.56;95020.84;5017328;28;20149;-84
2022/08/19 03:45:03;;;;;;;22.10;9.35;;;;;;;22.96;53.54;95032.69;5017791;28;20482;-85
2022/08/19 03:47:28;;;;;;;14.73;8.13;;;;;;;22.64;53.55;94994.91;5019515;28;20530;-84
2022/08/19 03:49:54;;;;;;;17.38;8.82;;;;;;;22.81;53.78;95030.81;5018764;28;20380;-84
2022/08/19 03:52:19;;;;;;;16.30;9.18;;;;;;;22.56;53.57;94987.78;5017520;28;20053;-85
2022/08/19 03:54:45;;;;;;;15.82;9.07;;;;;;;22.56;53.95;95001.31;5017485;28;20045;-84
2022/08/19 03:57:10;;;;;;;22.30;9.65;;;;;;;22.59;53.51;94997.09;5019327;28;20049;-84
2022/08/19 03:59:37;;;;;;;20.67;9.35;;;;;;;22.97;53.51;95048.53;5018050;28;20516;-84
2022/08/19 04:02:08;;;;;;;15.30;9.25;;;;;;;22.93;54.00;95053.09;5017761;28;20076;-84
2022/08/19 04:04:35;;;;;;;20.70;9.63;;;;;;;22.98;53.74;95060.13;5018174;28;20301;-84
2022/08/19 04:07:01;;;;;;;22.90;8.90;;;;;;;22.15;54.05;94970.28;5017496;28;20519;-84
2022/08/19 04:09:26;;;;;;;17.17;9.07;;;;;;;22.59;54.34;95051.16;5018815;28;20091;-84
2022/08/19 04:11:54;;;;;;;18.73;9.40;;;;;;;22.78;54.35;95072.06;5016849;28;20125;-85
2022/08/19 04:14:22;;;;;;;22.33;9.20;;;;;;;22.27;54.48;94970.19;5017467;28;20048;-84
2022/08/19 04:16:48;;;;;;;21.90;9.50;;;;;;;22.76;54.08;95052.69;5016906;28;20036;-84
2022/08/19 04:19:15;;;;;;;18.88;10.15;;;;;;;22.84;54.63;95067.94;5016862;28;20348;-85
2022/08/19 04:21:43;;;;;;;22.02;9.68;;;;;;;22.90;54.42;95064.59;5016187;28;20166;-85
2022/08/19 04:24:09;;;;;;;15.73;8.80;;;;;;;22.64;54.52;95043.56;5016928;28;20150;-85
2022/08/19 04:26:36;;;;;;;20.88;8.45;;;;;;;22.26;54.87;94976.72;5016800;28;20419;-85
2022/08/19 04:29:08;;;;;;;27.80;9.85;;;;;;;22.92;54.99;95075.84;5016640;28;20057;-85
2022/08/19 04:31:35;;;;;;;22.50;9.52;;;;;;;22.86;54.91;95060.28;5017791;28;20500;-86
2022/08/19 04:34:04;;;;;;;19.73;9.75;;;;;;;22.11;54.34;94934.31;5017186;28;20045;-85
2022/08/19 04:36:32;;;;;;;19.63;10.18;;;;;;;22.70;54.42;95020.53;5017017;28;20045;-85
2022/08/19 04:39:00;;;;;;;19.33;9.48;;;;;;;23.15;54.15;95083.28;5019060;28;20045;-85
2022/08/19 04:44:11;;;;;;;21.58;9.30;;;;;;;22.97;53.92;95035.00;5021657;28;20076;-85
2022/08/19 04:46:37;;;;;;;23.20;10.30;;;;;;;23.15;53.33;95054.31;5019912;28;20515;-85
2022/08/19 04:49:05;;;;;;;21.15;9.38;;;;;;;23.24;53.07;95060.28;5019438;28;20041;-85
2022/08/19 04:51:32;;;;;;;17.55;9.80;;;;;;;23.27;53.04;95061.47;5015854;28;20068;-85
2022/08/19 04:53:59;;;;;;;24.50;10.35;;;;;;;23.26;53.02;95068.06;5016573;28;20151;-85
2022/08/19 04:56:26;;;;;;;21.88;9.82;;;;;;;22.77;52.73;94990.19;5016861;28;20029;-85
2022/08/19 04:58:54;;;;;;;19.52;11.18;;;;;;;23.38;52.16;95076.81;5013251;28;20041;-85
2022/08/19 05:01:28;;;;;;;14.18;9.88;;;;;;;22.73;51.84;94985.81;4995845;28;20042;-85
2022/08/19 05:03:54;;;;;;;25.40;12.27;;;;;;;21.94;51.65;94859.84;4997243;28;20136;-85
2022/08/19 05:06:21;;;;;;;15.40;11.32;;;;;;;22.68;51.72;94966.03;5008081;28;20552;-85
2022/08/19 05:08:48;;;;;;;21.40;11.88;;;;;;;23.47;51.78;95076.59;4996590;28;20034;-85
2022/08/19 05:11:21;;;;;;;26.50;11.93;;;;;;;23.47;51.66;95084.69;4998288;28;20121;-85
2022/08/19 05:13:51;;;;;;;23.30;12.70;;;;;;;22.50;51.61;94939.78;5015913;28;20152;-85
2022/08/19 05:16:19;;;;;;;26.60;13.13;;;;;;;22.99;51.45;94997.56;5016340;28;20037;-85
2022/08/19 05:24:15;;;;;;;22.45;11.60;;;;;;;23.07;51.88;94985.75;5017187;28;20103;-85
2022/08/19 05:26:45;;;;;;;27.20;13.15;;;;;;;23.19;51.74;95024.63;5015947;28;20049;-85
2022/08/19 05:29:12;;;;;;;23.52;12.23;;;;;;;23.23;51.65;95039.78;5015891;28;20477;-85
2022/08/19 05:31:38;;;;;;;26.77;12.20;;;;;;;23.09;50.91;94998.94;5017943;28;20518;-85
2022/08/19 05:34:04;;;;;;;23.40;12.20;;;;;;;22.47;50.68;94891.84;5016679;28;20030;-87
2022/08/19 05:36:35;;;;;;;27.50;12.82;;;;;;;23.74;50.99;95080.19;5016509;28;20041;-86
2022/08/19 05:39:02;;;;;;;25.30;11.88;;;;;;;22.46;50.82;94899.16;5019924;28;20034;-85
2022/08/19 05:41:29;;;;;;;24.67;12.95;;;;;;;23.13;51.04;95018.69;5020253;28;20045;-85
2022/08/19 05:43:56;;;;;;;23.67;12.13;;;;;;;23.38;50.99;95040.84;5019869;28;20029;-85
2022/08/19 05:46:22;;;;;;;24.48;12.82;;;;;;;23.18;50.63;94996.00;5019462;28;20030;-85
2022/08/19 05:48:48;;;;;;;27.23;12.93;;;;;;;22.51;51.18;94936.69;5021565;28;20532;-85
2022/08/19 05:51:15;;;;;;;26.52;12.15;;;;;;;23.75;50.57;95084.47;5019463;28;20578;-85
2022/08/19 05:53:41;;;;;;;22.40;12.40;;;;;;;22.50;50.90;94910.84;5020139;28;20037;-85
2022/08/19 05:56:09;;;;;;;26.52;12.55;;;;;;;22.36;51.35;94905.13;5014373;28;20095;-85
2022/08/19 05:58:36;;;;;;;24.60;11.60;;;;;;;22.97;50.73;94967.41;5032906;28;20111;-85
2022/08/19 06:01:05;;;;;;;27.88;12.20;;;;;;;23.90;50.23;95078.16;5021488;28;20042;-85
2022/08/19 06:03:35;;;;;;;28.88;13.25;;;;;;;23.87;50.27;95073.50;5020120;28;20103;-85
2022/08/19 06:06:02;;;;;;;24.95;11.48;;;;;;;23.64;50.18;95026.66;5020853;28;20122;-85
2022/08/19 06:08:28;;;;;;;22.60;11.55;;;;;;;23.80;50.07;95019.22;5018531;28;20057;-85
2022/08/19 06:10:54;;;;;;;28.67;11.32;;;;;;;23.88;48.68;95023.56;5019921;28;20037;-85
2022/08/19 06:13:21;;;;;;;18.25;10.50;;;;;;;24.38;48.27;95092.94;5018759;28;20119;-85
2022/08/19 06:15:46;;;;;;;20.85;10.52;;;;;;;24.34;48.30;95070.41;5018313;28;20353;-85
2022/08/19 06:18:13;;;;;;;16.02;10.20;;;;;;;24.55;48.26;95086.25;5021005;28;20052;-86
2022/08/19 06:20:40;;;;;;;19.20;10.32;;;;;;;24.59;48.25;95085.13;5019939;28;20041;-85
2022/08/19 06:23:06;;;;;;;18.55;10.23;;;;;;;24.55;48.67;95108.72;5018528;28;20068;-85
2022/08/19 06:25:32;;;;;;;23.65;11.43;;;;;;;24.49;48.28;95057.84;5019178;28;20127;-85
2022/08/19 06:27:57;;;;;;;24.35;10.52;;;;;;;24.27;47.76;95013.41;5011751;28;20030;-85
2022/08/19 06:30:23;;;;;;;15.75;11.07;;;;;;;24.57;47.79;95054.09;5004810;28;20649;-85
2022/08/19 06:32:48;;;;;;;23.20;10.73;;;;;;;24.69;47.52;95053.13;5030346;28;20751;-85
2022/08/19 06:35:14;;;;;;;17.23;10.40;;;;;;;24.52;47.60;95027.31;5019876;28;20420;-85
2022/08/19 06:37:40;;;;;;;20.50;10.13;;;;;;;24.84;47.30;95071.16;5018735;28;20068;-86
2022/08/19 06:40:08;;;;;;;21.75;9.25;;;;;;;24.85;47.54;95075.44;5020232;28;20034;-85
2022/08/19 06:42:34;;;;;;;17.23;8.95;;;;;;;24.96;47.60;95089.94;5018249;28;20045;-85
2022/08/19 06:45:02;;;;;;;22.55;9.43;;;;;;;24.51;47.21;95021.13;5028175;28;20625;-85
2022/08/19 06:47:28;;;;;;;17.55;9.63;;;;;;;24.17;47.26;94936.22;5018645;28;20095;-85
2022/08/19 06:49:59;;;;;;;17.77;10.30;;;;;;;24.59;47.40;95016.56;5010667;28;20046;-85
2022/08/19 06:52:25;;;;;;;16.95;9.20;;;;;;;24.83;47.10;95037.06;4998781;28;20405;-85
2022/08/19 06:54:50;;;;;;;26.00;8.63;;;;;;;24.93;47.05;95056.22;4997930;28;20087;-85
2022/08/19 06:57:16;;;;;;;19.65;8.57;;;;;;;24.76;47.09;95029.59;5000907;28;20042;-85
2022/08/19 06:59:42;;;;;;;15.80;8.25;;;;;;;25.14;46.68;95074.69;4999724;28;20042;-85
2022/08/19 07:02:07;;;;;;;19.92;8.15;;;;;;;24.74;46.10;94999.34;4998350;28;20665;-85
2022/08/19 07:04:35;;;;;;;17.80;7.97;;;;;;;24.67;46.27;94984.91;4997955;28;20060;-85
2022/08/19 07:07:12;;;;;;;26.88;8.77;;;;;;;25.47;46.20;95092.94;4997789;28;20539;-85
2022/08/19 07:09:39;;;;;;;14.35;8.07;;;;;;;25.50;46.02;95091.41;5000494;28;20491;-85
2022/08/19 07:12:09;;;;;;;14.05;7.90;;;;;;;25.59;46.10;95090.00;4996559;28;20048;-85
2022/08/19 07:14:37;;;;;;;18.58;8.10;;;;;;;25.56;46.41;95092.63;4997669;28;20041;-85
2022/08/19 07:17:05;;;;;;;14.07;8.00;;;;;;;24.81;46.45;94972.31;5014460;28;20129;-85
2022/08/19 07:19:31;;;;;;;13.98;7.15;;;;;;;25.40;46.07;95046.72;5017846;28;20488;-85
2022/08/19 07:21:58;;;;;;;17.45;7.65;;;;;;;25.24;46.12;95019.00;5017766;28;20071;-85
2022/08/19 07:24:25;;;;;;;15.25;7.28;;;;;;;25.82;46.04;95095.28;5015514;28;20492;-85
2022/08/19 07:26:56;;;;;;;18.27;7.88;;;;;;;25.37;46.08;95018.38;5002276;28;20042;-85
2022/08/19 07:29:22;;;;;;;20.15;7.97;;;;;;;25.68;45.79;95057.13;4998938;28;20032;-86
2022/08/19 07:31:50;;;;;;;12.60;8.20;;;;;;;25.89;45.75;95089.94;5014860;28;20129;-86
2022/08/19 07:34:15;;;;;;;11.40;7.32;;;;;;;25.31;46.07;95011.72;5013905;28;20493;-85
2022/08/19 07:36:42;;;;;;;15.23;8.30;;;;;;;25.89;45.37;95083.72;5013478;28;20596;-85
2022/08/19 07:39:14;;;;;;;21.45;7.95;;;;;;;25.87;45.12;95067.78;5014217;28;20535;-85
2022/08/19 07:41:41;;;;;;;15.90;7.53;;;;;;;26.08;45.12;95089.75;5016038;28;20041;-85
2022/08/19 07:44:08;;;;;;;16.73;8.00;;;;;;;25.82;45.26;95038.25;4998119;28;20594;-85
2022/08/19 07:46:37;;;;;;;15.40;7.68;;;;;;;26.17;45.17;95089.41;4999545;28;20038;-85
2022/08/19 07:49:03;;;;;;;13.82;7.78;;;;;;;26.24;44.70;95091.44;5014114;28;20030;-85
2022/08/19 07:51:29;;;;;;;18.40;7.55;;;;;;;26.04;44.54;95040.00;4999801;28;20388;-86
2022/08/19 07:53:55;;;;;;;12.40;7.75;;;;;;;26.26;44.74;95045.63;5014371;28;20482;-85
2022/08/19 07:56:21;;;;;;;23.95;8.45;;;;;;;26.31;44.87;95062.41;5013252;28;20037;-85
2022/08/19 07:58:49;;;;;;;23.23;8.20;;;;;;;26.09;44.68;95006.28;4997686;28;20507;-86
2022/08/19 08:01:27;;;;;;;14.50;7.45;;;;;;;26.60;44.00;95081.63;5013297;28;20059;-85
2022/08/19 08:09:28;;;;;;;15.18;7.53;;;;;;;26.57;43.33;95079.66;5007483;28;20065;-85
2022/08/19 08:12:00;;;;;;;15.65;7.65;;;;;;;26.62;43.21;95071.94;5018532;28;20034;-85
2022/08/19 08:14:32;;;;;;;16.77;7.93;;;;;;;26.54;43.67;95059.47;5028012;28;20039;-85
2022/08/19 08:16:59;;;;;;;27.17;8.93;;;;;;;26.21;43.53;94991.59;5012132;28;20037;-85
2022/08/19 08:19:27;;;;;;;17.75;7.57;;;;;;;26.88;42.88;95071.72;5010304;28;20029;-85
2022/08/19 08:21:57;;;;;;;19.75;8.02;;;;;;;26.91;42.77;95072.16;5019739;28;20029;-85
2022/08/19 08:24:24;;;;;;;25.17;8.25;;;;;;;26.68;42.38;95026.91;5017029;28;20060;-85
2022/08/19 08:26:50;;;;;;;16.00;7.90;;;;;;;26.60;42.32;95006.28;5016434;28;20041;-85
2022/08/19 08:29:16;;;;;;;11.48;6.90;;;;;;;26.91;41.38;95042.22;5018402;28;20056;-85
2022/08/19 08:31:44;;;;;;;12.52;8.02;;;;;;;26.78;41.46;95026.16;5016894;28;20032;-85
2022/08/19 08:34:11;;;;;;;17.52;7.18;;;;;;;27.15;41.29;95063.34;5032046;28;20026;-85
2022/08/19 08:36:44;;;;;;;17.70;7.45;;;;;;;27.18;41.80;95068.78;5018164;28;20037;-85
2022/08/19 08:39:15;;;;;;;17.20;7.25;;;;;;;27.11;41.09;95024.44;5018572;28;20082;-85
2022/08/19 08:41:52;;;;;;;12.57;6.95;;;;;;;27.19;40.83;95054.03;5034227;28;20073;-85
2022/08/19 08:44:41;;;;;;;9.55;5.80;;;;;;;27.18;40.09;95029.91;5019990;28;20760;-85
2022/08/19 08:47:13;;;;;;;13.15;5.95;;;;;;;27.23;40.58;95035.00;5019020;28;20133;-85
2022/08/19 08:50:08;;;;;;;13.00;6.63;;;;;;;27.18;39.33;95002.66;5020681;28;20526;-85
2022/08/19 08:52:41;;;;;;;13.23;6.30;;;;;;;26.85;38.84;94941.88;5018933;28;20097;-85
2022/08/19 08:55:11;;;;;;;9.18;5.47;;;;;;;27.41;38.51;94999.63;5016614;28;20380;-85
2022/08/19 08:57:43;;;;;;;14.20;6.72;;;;;;;26.66;38.73;94887.78;5032331;28;20184;-86
2022/08/19 09:00:16;;;;;;;10.50;6.30;;;;;;;27.78;38.68;95041.00;5014907;28;20045;-85
2022/08/19 09:02:42;;;;;;;15.60;6.68;;;;;;;27.58;39.15;94999.72;5004290;28;20166;-84
2022/08/19 09:05:12;;;;;;;12.35;6.20;;;;;;;27.59;38.27;94978.72;5005859;28;20213;-85
2022/08/19 09:07:56;;;;;;;8.48;6.05;;;;;;;28.07;38.04;95035.59;5028020;28;20495;-85
2022/08/19 09:10:33;;;;;;;8.95;6.40;;;;;;;27.95;37.98;95007.53;5017249;28;20127;-85
2022/08/19 09:13:22;;;;;;;11.35;6.15;;;;;;;27.84;37.06;94978.75;5019935;28;20037;-85
2022/08/19 09:16:11;;;;;;;12.90;5.90;;;;;;;28.30;36.25;95033.31;5019452;28;20033;-85
2022/08/19 09:18:53;;;;;;;10.05;5.05;;;;;;;28.00;35.91;94965.47;5015025;28;20046;-85
2022/08/19 09:21:20;;;;;;;10.52;5.30;;;;;;;28.31;36.11;95010.28;5014351;28;20043;-85
2022/08/19 09:23:46;;;;;;;11.82;5.70;;;;;;;28.56;35.54;95023.91;5020807;28;20045;-86
2022/08/19 09:26:14;;;;;;;10.25;5.28;;;;;;;28.49;34.51;94997.44;5011509;28;20403;-85
2022/08/19 09:28:43;;;;;;;12.35;5.63;;;;;;;28.74;34.84;95019.22;5034101;28;20522;-85
2022/08/19 09:31:13;;;;;;;8.75;4.40;;;;;;;28.64;33.50;94981.81;5018114;28;20554;-85
2022/08/19 09:33:38;;;;;;;9.88;4.30;;;;;;;28.54;32.28;94939.72;5020107;28;20045;-86
2022/08/19 09:36:11;;;;;;;6.00;3.85;;;;;;;28.50;32.57;94916.38;5022347;28;20115;-84
2022/08/19 09:38:41;;;;;;;6.13;3.80;;;;;;;29.02;31.69;94980.94;5019382;28;20504;-85
2022/08/19 09:41:14;;;;;;;6.38;3.80;;;;;;;29.05;31.40;94961.03;5019649;28;20068;-84
2022/08/19 09:43:42;;;;;;;10.05;3.70;;;;;;;28.79;30.83;94915.91;5018383;28;20123;-85
2022/08/19 09:46:09;;;;;;;11.02;4.03;;;;;;;28.47;31.44;94863.38;5020080;28;20069;-84
2022/08/19 09:48:36;;;;;;;6.63;3.90;;;;;;;29.20;30.28;94964.47;5019813;28;20420;-84
2022/08/19 09:51:16;;;;;;;5.80;4.38;;;;;;;28.99;30.02;94920.91;5021244;28;20049;-85
2022/08/19 09:53:43;;;;;;;8.60;3.70;;;;;;;29.65;30.43;95009.13;5018933;28;20045;-85
2022/08/19 09:56:10;;;;;;;5.47;4.03;;;;;;;29.85;30.86;94973.84;5016825;28;20125;-85
2022/08/19 09:58:36;;;;;;;12.02;4.25;;;;;;;30.17;29.14;94922.44;5017594;28;20037;-85
2022/08/19 10:01:02;;;;;;;7.60;3.88;;;;;;;31.45;27.17;94998.47;5030001;28;20049;-85
2022/08/19 10:03:29;;;;;;;7.03;3.83;;;;;;;31.14;26.31;94790.72;5012803;28;20791;-84
2022/08/19 10:06:00;;;;;;;6.60;3.47;;;;;;;33.15;25.57;94948.25;5036325;28;20131;-84
2022/08/19 10:08:30;;;;;;;9.18;4.15;;;;;;;34.13;25.23;94962.97;5021059;28;20044;-85
2022/08/19 10:10:56;;;;;;;8.65;4.45;;;;;;;35.08;24.39;94981.78;5019104;28;20067;-85
2022/08/19 10:13:25;;;;;;;9.50;3.53;;;;;;;35.41;22.75;94943.81;5020214;28;20052;-85
2022/08/19 10:15:53;;;;;;;6.13;3.73;;;;;;;35.50;22.27;94896.28;5018651;28;20044;-84
2022/08/19 10:18:20;;;;;;;6.05;3.67;;;;;;;36.24;21.71;94942.84;5017287;28;20041;-84
2022/08/19 10:20:47;;;;;;;6.28;3.38;;;;;;;36.76;21.60;94945.06;5016829;28;20056;-84
2022/08/19 10:23:14;;;;;;;8.23;3.80;;;;;;;37.14;21.22;94941.34;5019977;28;20036;-84
2022/08/19 10:25:41;;;;;;;8.43;3.45;;;;;;;37.15;20.77;94893.13;5017926;28;20271;-84
2022/08/19 10:28:07;;;;;;;7.10;3.97;;;;;;;37.32;20.91;94953.28;5017115;28;20124;-84
2022/08/19 10:30:33;;;;;;;3.75;3.35;;;;;;;37.13;20.63;94898.34;5016521;28;20515;-84
2022/08/19 10:32:59;;;;;;;10.52;4.25;;;;;;;37.51;20.60;94947.84;5016177;28;20052;-85
2022/08/19 10:35:27;;;;;;;8.27;4.05;;;;;;;37.15;20.52;94862.72;5017060;28;20508;-84
2022/08/19 10:37:53;;;;;;;8.82;3.83;;;;;;;37.98;20.48;94962.22;5013363;28;20029;-85
2022/08/19 10:40:18;;;;;;;4.45;3.85;;;;;;;37.83;19.86;94867.94;4998458;28;20038;-84
2022/08/19 10:42:44;;;;;;;10.10;3.88;;;;;;;38.02;20.20;94863.19;5013243;28;20430;-84
2022/08/19 10:45:10;;;;;;;6.57;4.13;;;;;;;38.72;19.43;94947.34;5017609;28;20030;-85
2022/08/19 10:47:36;;;;;;;5.40;3.83;;;;;;;38.26;19.17;94884.78;5018500;28;20037;-84
2022/08/19 10:52:49;;;;;;;5.75;3.95;;;;;;;39.07;19.81;94936.69;5018875;28;20895;-85
2022/08/19 10:57:59;;;;;;;7.18;3.42;;;;;;;38.98;19.15;94934.72;4999391;28;20510;-85
2022/08/19 11:00:25;;;;;;;7.22;3.53;;;;;;;38.89;18.73;94904.22;4997593;28;20045;-84
2022/08/19 11:02:51;;;;;;;5.97;4.43;;;;;;;39.10;19.16;94946.88;4997581;28;20803;-85
2022/08/19 11:05:17;;;;;;;6.35;3.45;;;;;;;38.65;19.04;94836.03;5012029;28;20068;-85
2022/08/19 11:07:44;;;;;;;9.07;3.65;;;;;;;39.45;18.30;94947.28;5019774;28;20167;-85
2022/08/19 11:10:13;;;;;;;6.18;3.45;;;;;;;39.48;18.41;94899.19;5018678;28;20523;-85
2022/08/19 11:12:39;;;;;;;7.88;3.53;;;;;;;40.02;19.11;94919.63;5019716;28;20463;-85
2022/08/19 11:15:07;;;;;;;3.80;3.13;;;;;;;39.94;18.46;94912.91;5017298;28;20601;-85
2022/08/19 11:17:33;;;;;;;7.30;4.43;;;;;;;39.73;18.14;94881.38;5019154;28;20097;-85
2022/08/19 11:20:02;;;;;;;12.50;4.28;;;;;;;40.09;18.04;94883.19;5017607;28;20356;-85
2022/08/19 11:22:28;;;;;;;5.18;3.75;;;;;;;39.56;18.12;94878.19;5017666;28;20213;-84
2022/08/19 11:24:55;;;;;;;7.50;4.00;;;;;;;39.31;18.23;94842.50;5018167;28;20048;-85
2022/08/19 11:27:20;;;;;;;8.38;4.03;;;;;;;39.99;18.14;94940.00;5017331;28;20045;-84
2022/08/19 11:29:46;;;;;;;7.53;3.97;;;;;;;39.96;17.64;94913.19;5013652;28;20045;-85
2022/08/19 11:32:12;;;;;;;4.60;3.55;;;;;;;39.92;17.64;94918.13;5033401;28;20048;-85
2022/08/19 11:34:38;;;;;;;8.55;4.07;;;;;;;39.22;18.38;94918.19;5007093;28;20026;-84
2022/08/19 11:37:05;;;;;;;7.32;4.00;;;;;;;38.89;18.72;94911.75;5012405;28;20237;-84
2022/08/19 11:39:32;;;;;;;12.07;4.47;;;;;;;39.09;18.83;94908.50;5013100;28;20052;-86
2022/08/19 11:41:59;;;;;;;7.65;4.07;;;;;;;38.80;18.73;94811.97;5025734;28;20040;-85
2022/08/19 11:44:25;;;;;;;6.65;4.22;;;;;;;39.29;18.45;94911.56;5015997;28;20128;-84
2022/08/19 11:46:52;;;;;;;4.47;4.00;;;;;;;38.93;18.76;94862.47;5030947;28;20456;-85
2022/08/19 11:49:19;;;;;;;8.48;4.28;;;;;;;39.26;18.77;94868.88;5026146;28;20048;-85